Flight Track Log - Related Links

Times and Time Zones

All times are in EDT time to prevent confusion due to time zone crossing. See the CPT7773 flight status page for this flight to view local times or setup timezone preferences in your user account.

Time Position Orientation Groundspeed Altitude Reporting Facility
EDT Latitude Longitude Course Direction KTS MPH feet Rate Location/Type
Mon 08:14:00 PM 44.3770 -108.7043 120° Southeast  Level FlightAware Approximate
Mon 08:15:00 PM 44.3549 -108.6510 120° Southeast  Level FlightAware Approximate
Mon 08:16:00 PM 44.3327 -108.5977 120° Southeast  Level FlightAware Approximate
Mon 08:17:00 PM 44.3105 -108.5445 120° Southeast  Level FlightAware Approximate
Mon 08:18:00 PM 44.2882 -108.4913 120° Southeast  Level FlightAware Approximate
Mon 08:19:00 PM 44.2660 -108.4381 120° Southeast  Level FlightAware Approximate
Mon 08:20:00 PM 44.2415 -108.3873 133° Southeast  Level FlightAware Approximate
Mon 08:21:00 PM 44.2116 -108.3422 133° Southeast  Level FlightAware Approximate
Mon 08:22:00 PM 44.1815 -108.2971 133° Southeast  Level FlightAware Approximate
Mon 08:23:00 PM 44.1515 -108.2521 133° Southeast  Level FlightAware Approximate
Mon 08:24:00 PM 44.1215 -108.2072 133° Southeast  Level FlightAware Approximate
Mon 08:25:00 PM 44.0915 -108.1621 133° Southeast  Level FlightAware Approximate
Mon 08:26:00 PM 44.0616 -108.1171 133° Southeast  Level FlightAware Approximate
Mon 08:27:00 PM 44.0316 -108.0721 133° Southeast  Level FlightAware Approximate
Mon 08:28:00 PM 44.0016 -108.0272 133° Southeast  Level FlightAware Approximate
Mon 08:29:00 PM 43.9716 -107.9823 133° Southeast  Level FlightAware Approximate
Mon 08:30:00 PM 43.9438 -107.9352 120° Southeast  Level FlightAware Approximate
Mon 08:31:00 PM 43.9218 -107.8821 120° Southeast  Level FlightAware Approximate
Mon 08:32:00 PM 43.8997 -107.8292 120° Southeast  Level FlightAware Approximate
Mon 08:33:00 PM 43.8776 -107.7762 120° Southeast  Level FlightAware Approximate
Mon 08:34:00 PM 43.8530 -107.7257 128° Southeast  Level FlightAware Approximate
Mon 08:35:00 PM 43.8259 -107.6775 128° Southeast  Level FlightAware Approximate
Mon 08:36:00 PM 43.7988 -107.6293 128° Southeast  Level FlightAware Approximate
Mon 08:37:00 PM 43.7716 -107.5812 128° Southeast  Level FlightAware Approximate
Mon 08:38:00 PM 43.7444 -107.5331 128° Southeast  Level FlightAware Approximate
Mon 08:39:00 PM 43.7173 -107.4851 128° Southeast  Level FlightAware Approximate
Mon 08:40:00 PM 43.6900 -107.4371 128° Southeast  Level FlightAware Approximate
Mon 08:41:00 PM 43.6628 -107.3892 128° Southeast  Level FlightAware Approximate
Mon 08:42:00 PM 43.6367 -107.3401 125° Southeast  Level FlightAware Approximate
Mon 08:43:00 PM 43.6117 -107.2900 125° Southeast  Level FlightAware Approximate
Mon 08:44:00 PM 43.5866 -107.2399 125° Southeast  Level FlightAware Approximate
Mon 08:45:00 PM 43.5617 -107.1898 124° Southeast  Level FlightAware Approximate
Mon 08:46:00 PM 43.5368 -107.1396 124° Southeast  Level FlightAware Approximate
Mon 08:46:30 PM 43.4869 -107.0197 125° Southeast 189 217 11,000  Level Denver Center
Mon 08:47:00 PM 43.5118 -107.0895 124° Southeast  Level FlightAware Approximate
Mon 08:47:32 PM 43.4597 -106.9739 129° Southeast 164 189 11,000  Level Denver Center
Mon 08:48:00 PM 43.4868 -107.0394 125° Southeast  Level FlightAware Approximate
Mon 08:48:34 PM 43.4317 -106.9189 125° Southeast 160 184 11,000  Level Denver Center
Mon 08:49:00 PM 43.4618 -106.9894 125° Southeast  Level FlightAware Approximate
Mon 08:49:36 PM 43.4069 -106.8717 126° Southeast 159 183 11,100  Level Denver Center
Mon 08:50:00 PM 43.4368 -106.9394 125° Southeast  Level FlightAware Approximate
Mon 08:50:38 PM 43.3653 -106.8325 146° Southeast 157 181 10,800  Level Denver Center
Mon 08:51:00 PM 43.4117 -106.8894 125° Southeast  Level FlightAware Approximate
Mon 08:51:39 PM 43.3214 -106.7997 151° Southeast 168 193 10,400  Level Denver Center
Mon 08:52:41 PM 43.2781 -106.7672 151° Southeast 177 204 10,000 -435 Descending Denver Center
Mon 08:53:43 PM 43.2303 -106.7281 149° Southeast 180 207 9,500 -435 Descending Denver Center
Mon 08:54:45 PM 43.1900 -106.6908 146° Southeast 181 208 9,100 -484 Descending Denver Center
Mon 08:55:47 PM 43.1406 -106.6589 155° Southeast 177 204 8,500 -488 Descending Denver Center
Mon 08:56:48 PM 43.0956 -106.6353 159° South 178 205 8,100 -488 Descending Denver Center
Mon 08:57:50 PM 43.0417 -106.6086 160° South 180 207 7,500 -435 Descending Denver Center
Mon 08:58:52 PM 42.9950 -106.5842 159° South 184 212 7,200 -195 Descending Denver Center
Mon 08:59:53 PM 42.9433 -106.5592 160° South 184 212 7,100 -98 Descending Denver Center
Mon 09:01:00 PM 42.9192 -106.4984 118° Southeast  Level FlightAware Approximate
Mon 09:08:00 PM 42.9080 -106.4644 144° Southeast  Level Estimated
Mon 09:09:00 PM 42.9080 -106.4644 144° Southeast  Level Estimated
Mon 09:10:00 PM 42.9080 -106.4644 144° Southeast  Level Estimated
Mon 09:11:00 PM 42.9080 -106.4644 144° Southeast  Level Estimated
Mon 09:12:00 PM 42.9080 -106.4644 144° Southeast  Level Estimated

Login

Don't have an account? Register now (free) for customized features, flight alerts, and more!